Skip Navigation Links Skip Navigation Links

Current Weather

Heathrow, London

For information only: do not use for flight planning or navigation.
Latest weather
Observation time Thursday, October 17, 2019 7:20 AM BST
Local time Thursday, October 17, 2019 7:28 AM BST
Flight conditions Visual Meteorological Conditions
Winds
Wind direction South-Southeast (150°)
Winds variable from 110° to 220°
Wind speed 6 mph
Visibility 6.2 mi.
Sky condition
Ceiling unlimited
Temperature 48°F
Dewpoint 46°F
Altimeter 29.74 in.Hg
Derived measurements
Relative humidity 93%
Wind chill 46°F
Density altitude -353 ft.
Remarks
Corrected report.
Fully automated report.
No significant changes expected in the next two hours.
METAR COR EGLL 170620Z AUTO 15005KT 110V220 9999 NCD 09/08 Q1007 NOSIG

Settings

Location code

InnerDrive.Weather 4.0.6770.0 Release CLR 4.0.30319.42000
Copyright ©2018 Inner Drive Technology. All rights reserved. Portions Copyright ©1986-2018 David Braverman.

Find weather

Site navigation


Skip Navigation Links

Place info

Page info

PayPal - The safer, easier way to pay online!

Return home.

Copyright ©2019 Inner Drive Technology. Purveyors of fine, hand-crafted computer software. Page printed 2019-10-17T06:28:17 UTC.